Seden, Denmark
Current Conditions -  °F | °C
As of 5:20 PM on Tuesday 25 Nov 2014 (Local Time) from EKOD Reporting Station
Scattered Clouds Scattered Clouds  
Wind Chill: 39°   Ceiling: Unl
Heat Index: 39°   Visibility: 6mi
Dew Point: 39°   Wind: 3mph
Humidity: 100%   Direction: 290°WNW
Pressure: 30.3"   Gusts: NA
Location:  55.43°N, 10.44°E
Report Text: EKOD 251620Z 29003KT 9999 SCT026 04/04 Q1026
Loading
Personal Weather Stations






























Interactive Weather Map New forecast layout! Learn more

10-Day Weather Forecast

Advertisements
Track Severe Weather on mobile